Time;durP1;ratioP1;P1;durP2;ratioP2;P2;SDS_P1;SDS_P2;PMS_P1;PMS_P2;Temp;Humidity;BMP_temperature;BMP_pressure;BME280_temperature;BME280_humidity;BME280_pressure;Samples;Min_cycle;Max_cycle;Signal;HPM_P1;HPM_P2
2022/09/23 00:02:05;;;;;;;3.35;1.73;;;;;;;8.68;79.69;101425.69;10487837;28;20044;-77
2022/09/23 00:07:08;;;;;;;1.33;1.05;;;;;;;8.65;79.70;101428.91;10485239;28;20041;-78
2022/09/23 00:12:10;;;;;;;3.67;1.25;;;;;;;8.64;79.58;101424.50;10485179;28;20037;-78
2022/09/23 00:17:13;;;;;;;4.18;1.95;;;;;;;8.67;78.79;101422.09;10486138;28;20048;-77
2022/09/23 00:22:15;;;;;;;2.50;1.60;;;;;;;8.74;80.02;101420.03;10482182;28;20076;-78
2022/09/23 00:27:20;;;;;;;4.53;1.92;;;;;;;8.64;79.74;101419.88;10469246;28;20036;-78
2022/09/23 00:32:22;;;;;;;3.00;1.33;;;;;;;8.64;79.03;101408.94;10485405;28;20122;-78
2022/09/23 00:37:24;;;;;;;6.00;2.15;;;;;;;8.55;79.25;101412.34;10483538;28;20088;-77
2022/09/23 00:42:26;;;;;;;4.82;1.98;;;;;;;8.56;79.76;101400.31;10485389;28;20431;-77
2022/09/23 00:47:54;;;;;;;4.07;1.25;;;;;;;8.68;79.50;101404.63;10483704;28;20037;-77
2022/09/23 00:52:58;;;;;;;5.32;1.40;;;;;;;8.66;79.89;101400.47;10484060;28;20429;-77
2022/09/23 00:58:02;;;;;;;4.47;2.15;;;;;;;8.69;79.81;101395.34;10484357;28;20037;-77
2022/09/23 01:03:06;;;;;;;3.40;1.88;;;;;;;8.89;79.74;101394.81;10482841;28;20503;-77
2022/09/23 01:08:09;;;;;;;2.38;1.13;;;;;;;8.87;78.97;101393.41;10483833;28;20041;-77
2022/09/23 01:13:53;;;;;;;5.82;2.08;;;;;;;8.83;79.25;101384.03;10484203;28;20045;-77
2022/09/23 01:19:01;;;;;;;3.53;1.83;;;;;;;8.81;78.40;101386.19;10479380;28;20407;-77
2022/09/23 01:24:25;;;;;;;8.98;2.03;;;;;;;8.75;79.27;101385.31;10484403;28;20044;-78
2022/09/23 01:29:54;;;;;;;3.55;1.85;;;;;;;8.70;78.94;101388.78;10482540;28;20045;-78
2022/09/23 01:35:29;;;;;;;6.43;2.25;;;;;;;8.70;79.03;101385.22;10467585;28;20063;-77
2022/09/23 01:40:37;;;;;;;9.40;2.70;;;;;;;8.75;79.31;101374.34;10476362;28;20033;-77
2022/09/23 01:45:42;;;;;;;4.53;2.33;;;;;;;8.93;79.54;101379.53;10481959;28;20036;-77
2022/09/23 01:50:57;;;;;;;3.97;2.70;;;;;;;9.11;78.68;101380.34;10481397;28;20049;-77
2022/09/23 01:56:02;;;;;;;4.75;2.53;;;;;;;8.93;79.15;101379.53;10478515;28;20040;-77
2022/09/23 02:01:06;;;;;;;3.88;2.47;;;;;;;8.82;79.01;101377.72;10464070;28;20033;-77
2022/09/23 02:06:20;;;;;;;3.65;1.80;;;;;;;8.79;79.19;101391.09;10483883;28;20596;-77
2022/09/23 02:11:22;;;;;;;5.53;1.80;;;;;;;8.66;78.88;101387.63;10477894;28;20530;-77
2022/09/23 02:16:29;;;;;;;3.90;2.13;;;;;;;8.61;79.94;101381.25;10484614;28;20526;-77
2022/09/23 02:21:37;;;;;;;5.03;2.20;;;;;;;8.85;79.87;101390.94;10483763;28;20045;-78
2022/09/23 02:26:54;;;;;;;2.67;1.70;;;;;;;9.00;79.49;101385.66;10500768;28;20529;-78
2022/09/23 02:32:01;;;;;;;3.20;1.87;;;;;;;9.33;79.43;101381.16;10444779;28;20045;-78
2022/09/23 02:37:34;;;;;;;3.35;2.30;;;;;;;9.51;79.11;101374.53;10475380;28;20052;-78
2022/09/23 02:43:18;;;;;;;3.00;2.20;;;;;;;9.51;77.86;101374.53;10491544;28;20056;-78
2022/09/23 02:48:26;;;;;;;4.53;2.15;;;;;;;9.38;77.95;101369.47;10447257;28;20049;-78
2022/09/23 02:53:32;;;;;;;2.28;1.60;;;;;;;9.25;77.72;101370.66;10472644;28;20079;-78
2022/09/23 02:58:35;;;;;;;2.58;1.70;;;;;;;9.26;77.76;101370.41;10491392;28;20507;-77
2022/09/23 03:04:16;;;;;;;2.85;1.95;;;;;;;9.20;78.69;101373.31;10489128;28;20057;-77
2022/09/23 03:09:29;;;;;;;3.58;1.98;;;;;;;9.02;78.35;101377.19;10445163;28;20041;-78
2022/09/23 03:14:40;;;;;;;2.72;1.70;;;;;;;8.87;78.39;101374.25;10478300;28;20052;-77
2022/09/23 03:19:47;;;;;;;2.30;1.90;;;;;;;8.74;78.64;101370.78;10481345;28;20052;-78
2022/09/23 03:24:50;;;;;;;2.97;1.70;;;;;;;8.81;79.48;101369.78;10487843;28;20041;-78
2022/09/23 03:29:52;;;;;;;2.67;1.70;;;;;;;8.62;79.66;101367.31;10489514;28;20051;-78
2022/09/23 03:34:57;;;;;;;1.92;1.48;;;;;;;8.53;80.11;101362.53;10470055;28;20403;-78
2022/09/23 03:40:23;;;;;;;1.80;1.20;;;;;;;8.49;80.64;101356.72;10455410;28;20037;-77
2022/09/23 03:45:28;;;;;;;1.63;1.42;;;;;;;8.45;80.35;101361.03;10487225;28;20036;-78
2022/09/23 03:50:30;;;;;;;3.17;1.55;;;;;;;8.38;81.46;101361.22;10488040;28;20507;-78
2022/09/23 03:55:33;;;;;;;6.32;1.80;;;;;;;8.29;81.71;101356.34;10488132;28;20514;-78
2022/09/23 04:00:35;;;;;;;3.63;1.63;;;;;;;8.26;82.10;101363.16;10487671;28;20068;-78
2022/09/23 04:05:38;;;;;;;2.55;1.67;;;;;;;8.28;82.46;101361.00;10489646;28;20057;-79
2022/09/23 04:10:40;;;;;;;7.07;1.92;;;;;;;8.25;82.03;101366.97;10488205;28;20041;-80
2022/09/23 04:15:43;;;;;;;4.05;1.92;;;;;;;8.37;82.57;101364.19;10484763;28;20064;-79
2022/09/23 04:20:45;;;;;;;5.25;2.30;;;;;;;8.52;81.93;101364.44;10482314;28;20044;-79
2022/09/23 04:25:48;;;;;;;3.00;1.20;;;;;;;8.90;82.12;101362.81;10487414;28;20040;-84
2022/09/23 04:30:50;;;;;;;2.67;1.38;;;;;;;9.38;80.67;101358.50;10481189;28;20037;-80
2022/09/23 04:35:52;;;;;;;4.40;2.00;;;;;;;9.51;79.35;101360.84;10485235;28;20444;-80
2022/09/23 04:40:54;;;;;;;1.95;1.38;;;;;;;9.60;78.57;101356.56;10470440;28;20048;-79
2022/09/23 04:46:00;;;;;;;2.67;1.95;;;;;;;9.47;78.57;101352.31;10486661;28;20048;-79
2022/09/23 04:51:16;;;;;;;5.03;2.15;;;;;;;9.35;77.65;101352.44;10487290;28;20534;-79
2022/09/23 04:56:22;;;;;;;9.65;3.08;;;;;;;9.21;78.47;101364.88;10485445;28;20041;-79
2022/09/23 05:01:30;;;;;;;4.32;2.00;;;;;;;9.15;77.87;101365.03;10475753;28;20524;-79
2022/09/23 05:06:33;;;;;;;6.30;2.75;;;;;;;8.99;78.78;101366.75;10487797;28;20037;-79
2022/09/23 05:11:36;;;;;;;5.68;1.85;;;;;;;9.05;79.09;101357.53;10491561;28;20041;-79
2022/09/23 05:16:38;;;;;;;3.90;1.67;;;;;;;9.15;78.97;101356.84;10476294;28;20059;-78
2022/09/23 05:21:40;;;;;;;2.72;0.85;;;;;;;9.81;79.24;101361.19;10486779;28;20044;-79
2022/09/23 05:26:42;;;;;;;3.13;2.22;;;;;;;10.26;77.81;101360.00;10464540;28;20554;-78
2022/09/23 05:31:44;;;;;;;3.83;1.90;;;;;;;10.40;77.20;101360.34;10481528;28;20029;-78
2022/09/23 05:36:46;;;;;;;3.33;1.80;;;;;;;10.78;76.17;101356.53;10486839;28;20056;-78
2022/09/23 05:41:49;;;;;;;4.25;1.95;;;;;;;11.04;75.45;101369.31;10483973;28;20037;-78
2022/09/23 05:46:51;;;;;;;4.38;2.05;;;;;;;11.09;74.89;101374.81;10445671;28;20049;-78
2022/09/23 05:51:53;;;;;;;1.00;0.73;;;;;;;10.90;74.52;101375.53;10490995;28;20056;-78
2022/09/23 05:56:55;;;;;;;6.78;1.92;;;;;;;10.69;75.50;101380.06;10513535;28;20036;-78
2022/09/23 06:01:57;;;;;;;4.55;2.47;;;;;;;10.52;76.06;101377.47;10527695;28;20499;-78
2022/09/23 06:07:00;;;;;;;3.78;1.33;;;;;;;10.44;76.35;101384.28;10483126;28;20041;-78
2022/09/23 06:12:03;;;;;;;13.65;3.03;;;;;;;10.37;76.39;101389.16;10444300;28;20042;-78
2022/09/23 06:17:05;;;;;;;5.88;2.10;;;;;;;10.40;76.89;101377.66;10444706;28;20049;-78
2022/09/23 06:22:08;;;;;;;8.05;2.42;;;;;;;10.44;76.55;101386.22;10459690;28;20048;-77
2022/09/23 06:27:10;;;;;;;7.25;2.63;;;;;;;10.61;77.06;101386.06;10484588;28;20064;-78
2022/09/23 06:32:12;;;;;;;4.45;1.83;;;;;;;10.77;76.53;101376.84;10484173;28;20041;-79
2022/09/23 06:37:14;;;;;;;7.90;1.95;;;;;;;10.90;76.26;101386.53;10484471;28;20522;-79
2022/09/23 06:42:17;;;;;;;3.72;1.85;;;;;;;10.85;76.62;101387.31;10486377;28;20048;-79
2022/09/23 06:47:19;;;;;;;6.07;2.17;;;;;;;11.12;76.17;101381.72;10485338;28;20527;-79
2022/09/23 06:52:21;;;;;;;4.35;2.08;;;;;;;11.94;74.88;101388.38;10462971;28;20535;-78
2022/09/23 06:57:23;;;;;;;6.07;2.38;;;;;;;12.16;74.48;101379.88;10444457;28;20045;-79
2022/09/23 07:02:26;;;;;;;2.67;1.40;;;;;;;12.27;73.14;101379.59;10443601;28;20070;-79
2022/09/23 07:07:31;;;;;;;5.00;1.90;;;;;;;12.95;72.02;101369.09;10473680;28;20044;-78
2022/09/23 07:12:33;;;;;;;3.03;1.27;;;;;;;13.60;70.82;101371.91;10484161;28;20044;-79
2022/09/23 07:17:35;;;;;;;2.42;1.50;;;;;;;13.92;69.49;101371.47;10484713;28;20407;-79
2022/09/23 07:22:38;;;;;;;9.93;2.33;;;;;;;14.23;68.25;101376.75;10489645;28;20041;-79
2022/09/23 07:27:40;;;;;;;2.42;1.40;;;;;;;14.19;67.20;101377.31;10491876;28;20365;-79
2022/09/23 07:32:43;;;;;;;1.90;1.10;;;;;;;14.07;66.83;101371.38;10487260;28;20050;-78
2022/09/23 07:37:45;;;;;;;1.95;0.90;;;;;;;13.88;66.80;101370.34;10491894;28;20388;-78
2022/09/23 07:42:47;;;;;;;1.17;0.82;;;;;;;13.46;67.27;101385.47;10491675;28;20045;-78
2022/09/23 07:47:49;;;;;;;2.50;1.10;;;;;;;13.04;68.33;101374.03;10478530;28;20037;-79
2022/09/23 07:52:51;;;;;;;2.95;1.10;;;;;;;12.75;68.63;101368.31;10461483;28;20045;-79
2022/09/23 07:57:54;;;;;;;2.67;1.05;;;;;;;12.57;69.70;101372.44;10491136;28;20046;-79
2022/09/23 08:02:56;;;;;;;1.08;0.73;;;;;;;12.73;69.59;101373.28;10491585;28;20052;-79
2022/09/23 08:07:58;;;;;;;2.58;1.27;;;;;;;12.94;69.05;101369.38;10488112;28;20048;-80
2022/09/23 08:13:02;;;;;;;1.95;1.20;;;;;;;13.07;68.94;101368.78;10501374;28;20064;-80
2022/09/23 08:18:04;;;;;;;0.82;0.57;;;;;;;12.56;69.61;101365.28;10494516;28;20043;-80
2022/09/23 08:23:06;;;;;;;1.48;1.00;;;;;;;12.29;69.29;101366.41;10490368;28;20053;-80
2022/09/23 08:28:09;;;;;;;2.70;1.40;;;;;;;11.97;70.26;101366.63;10460843;28;20057;-80
2022/09/23 08:33:11;;;;;;;1.92;0.70;;;;;;;11.83;71.01;101372.97;10480453;28;20045;-80
2022/09/23 08:38:13;;;;;;;2.90;0.70;;;;;;;11.82;70.47;101372.13;10478256;28;20401;-79
2022/09/23 08:43:26;;;;;;;1.13;0.85;;;;;;;11.93;69.91;101368.28;10479013;28;20509;-80
2022/09/23 08:48:33;;;;;;;3.40;0.90;;;;;;;12.19;68.77;101365.56;10487291;28;20060;-80
2022/09/23 08:53:36;;;;;;;0.73;0.70;;;;;;;12.23;68.24;101370.25;10465799;28;20059;-80
2022/09/23 08:58:46;;;;;;;2.20;1.10;;;;;;;12.30;67.73;101367.22;10497499;28;20530;-81
2022/09/23 09:03:52;;;;;;;1.17;0.80;;;;;;;12.25;68.14;101365.28;10516800;28;20044;-81
2022/09/23 09:08:57;;;;;;;3.35;0.60;;;;;;;12.35;67.06;101362.56;10528613;28;20043;-80
2022/09/23 09:14:04;;;;;;;1.40;1.00;;;;;;;12.29;66.37;101360.06;10515892;28;20076;-80
2022/09/23 09:19:15;;;;;;;0.38;0.38;;;;;;;12.22;65.24;101362.28;10486817;28;20041;-80
2022/09/23 09:24:33;;;;;;;0.40;0.38;;;;;;;12.28;65.47;101362.00;10486714;28;20079;-79
2022/09/23 09:29:38;;;;;;;0.73;0.73;;;;;;;12.24;65.97;101358.16;10486214;28;20037;-80
2022/09/23 09:34:52;;;;;;;0.60;0.57;;;;;;;12.31;65.59;101352.34;10481077;28;20052;-80
2022/09/23 09:39:55;;;;;;;0.40;0.40;;;;;;;12.21;64.06;101350.44;10485278;28;20043;-79
2022/09/23 09:45:02;;;;;;;0.60;0.40;;;;;;;12.05;62.82;101351.53;10487165;28;20048;-79
2022/09/23 09:50:19;;;;;;;0.73;0.68;;;;;;;12.02;62.55;101352.09;10485308;28;20041;-80
2022/09/23 09:55:26;;;;;;;0.75;0.75;;;;;;;11.94;62.60;101355.34;10484500;28;20056;-80
2022/09/23 10:00:29;;;;;;;0.57;0.50;;;;;;;11.91;62.47;101350.41;10452270;28;20037;-80
2022/09/23 10:05:34;;;;;;;0.40;0.40;;;;;;;11.84;62.23;101352.59;10484851;28;20044;-80
2022/09/23 10:10:36;;;;;;;0.82;0.68;;;;;;;11.83;63.07;101365.53;10484231;28;20045;-81
2022/09/23 10:15:42;;;;;;;1.60;0.65;;;;;;;11.84;63.19;101369.09;10485511;28;20041;-80
2022/09/23 10:20:45;;;;;;;2.45;0.80;;;;;;;11.83;64.86;101359.22;10486161;28;20045;-80
2022/09/23 10:25:59;;;;;;;1.45;0.77;;;;;;;11.78;66.66;101373.72;10485711;28;20423;-81
2022/09/23 10:31:12;;;;;;;1.45;0.80;;;;;;;11.63;67.96;101360.78;10484417;28;20045;-80
2022/09/23 10:36:18;;;;;;;1.27;0.70;;;;;;;11.50;68.54;101355.78;10485526;28;20570;-83
2022/09/23 10:46:51;;;;;;;1.35;0.80;;;;;;;11.44;70.41;101354.09;10484846;28;20049;-84
2022/09/23 10:52:13;;;;;;;2.47;1.15;;;;;;;11.28;70.54;101355.13;10491619;28;20511;-82
2022/09/23 10:57:40;;;;;;;1.60;0.90;;;;;;;11.12;70.80;101352.34;10474176;28;20036;-83
2022/09/23 11:03:16;;;;;;;1.20;0.73;;;;;;;11.08;70.92;101350.38;10494009;28;20041;-84
2022/09/23 11:08:49;;;;;;;0.82;0.70;;;;;;;11.11;70.78;101353.44;10475204;28;20046;-83
2022/09/23 11:14:24;;;;;;;1.02;0.80;;;;;;;11.10;70.47;101351.75;10483220;28;20057;-87
2022/09/23 11:19:52;;;;;;;0.70;0.70;;;;;;;11.06;69.90;101347.91;10471779;28;20087;-90
2022/09/23 11:25:00;;;;;;;1.92;1.52;;;;;;;11.05;69.61;101343.50;10497339;28;20049;-94
2022/09/23 11:30:13;;;;;;;1.00;0.93;;;;;;;11.05;69.65;101342.66;10505122;28;20049;-86
2022/09/23 11:35:23;;;;;;;0.98;0.80;;;;;;;11.03;70.72;101342.94;10500983;28;20045;-80
2022/09/23 11:40:36;;;;;;;2.75;1.15;;;;;;;10.95;70.75;101345.38;10498435;28;20045;-82
2022/09/23 11:45:58;;;;;;;0.70;0.68;;;;;;;10.94;70.49;101341.81;10506518;28;20025;-85
2022/09/23 11:51:14;;;;;;;1.40;0.93;;;;;;;10.92;70.27;101343.13;10496201;28;20058;-85
2022/09/23 11:56:27;;;;;;;0.50;0.50;;;;;;;10.92;69.78;101343.97;10502531;28;20049;-85
2022/09/23 12:01:32;;;;;;;0.57;0.57;;;;;;;10.80;68.05;101326.91;10483979;28;20056;-85
2022/09/23 12:06:42;;;;;;;0.80;0.80;;;;;;;10.81;68.42;101328.56;10464136;28;20528;-85
2022/09/23 12:11:57;;;;;;;0.70;0.70;;;;;;;10.78;69.25;101326.34;10449257;28;20049;-85
2022/09/23 12:17:21;;;;;;;1.42;0.73;;;;;;;10.70;70.00;101324.91;10461420;28;20052;-87
2022/09/23 12:22:52;;;;;;;1.20;0.50;;;;;;;10.69;69.79;101328.75;10478404;28;20419;-87
2022/09/23 12:28:00;;;;;;;1.40;0.60;;;;;;;10.64;70.59;101314.16;10502363;28;20048;-88
2022/09/23 12:33:13;;;;;;;1.08;0.68;;;;;;;10.49;70.56;101317.63;10489103;28;20041;-87
2022/09/23 12:38:25;;;;;;;1.20;1.10;;;;;;;10.43;71.08;101322.28;10505574;28;20091;-87
2022/09/23 12:43:34;;;;;;;4.18;0.90;;;;;;;10.45;73.02;101314.59;10480469;28;20404;-87
2022/09/23 12:48:58;;;;;;;1.35;0.50;;;;;;;10.38;73.56;101305.75;10487842;28;20041;-86
2022/09/23 12:54:03;;;;;;;1.95;0.82;;;;;;;10.44;74.80;101301.97;10474633;28;20400;-86
2022/09/23 12:59:14;;;;;;;0.60;0.60;;;;;;;10.46;75.18;101307.19;10478193;28;20048;-86
2022/09/23 13:09:55;;;;;;;2.38;0.90;;;;;;;10.69;75.13;101300.47;10481303;28;20049;-83
2022/09/23 13:15:04;;;;;;;4.03;1.63;;;;;;;10.93;74.68;101295.38;10478141;28;20439;-83
2022/09/23 13:20:37;;;;;;;1.60;0.57;;;;;;;10.95;74.07;101304.19;10446830;28;20058;-82
2022/09/23 13:25:41;;;;;;;1.52;1.00;;;;;;;10.86;72.02;101320.34;10434046;28;20065;-85
2022/09/23 13:30:50;;;;;;;3.80;1.20;;;;;;;10.78;71.64;101316.19;10481330;28;20049;-80
2022/09/23 13:35:57;;;;;;;2.45;0.95;;;;;;;10.85;72.36;101307.69;10488569;28;20053;-87
2022/09/23 13:41:13;;;;;;;0.70;0.70;;;;;;;10.83;72.94;101307.97;10487386;28;20040;-85
2022/09/23 13:46:27;;;;;;;1.38;0.90;;;;;;;10.91;72.94;101306.63;10487139;28;20036;-85
2022/09/23 13:51:33;;;;;;;0.88;0.80;;;;;;;10.93;73.98;101309.91;10473738;28;20055;-86
2022/09/23 13:56:36;;;;;;;1.50;0.52;;;;;;;10.90;74.90;101302.22;10485545;28;20045;-84
2022/09/23 14:01:44;;;;;;;0.80;0.80;;;;;;;10.90;75.47;101301.41;10483367;28;20048;-84
2022/09/23 14:06:46;;;;;;;0.40;0.40;;;;;;;10.83;76.25;101304.41;10476792;28;20044;-83
2022/09/23 14:11:49;;;;;;;1.27;1.10;;;;;;;10.87;76.38;101305.50;10470769;28;20045;-84
2022/09/23 14:16:52;;;;;;;3.38;2.28;;;;;;;10.97;75.86;101300.06;10477437;28;20044;-80
2022/09/23 14:21:55;;;;;;;3.38;1.27;;;;;;;10.90;75.74;101299.47;10479496;28;20302;-84
2022/09/23 14:27:00;;;;;;;3.83;1.60;;;;;;;10.84;75.98;101309.63;10481718;28;20051;-84
2022/09/23 14:32:11;;;;;;;3.00;2.08;;;;;;;10.80;76.38;101294.78;10502832;28;20047;-84
2022/09/23 14:42:40;;;;;;;2.22;1.05;;;;;;;10.71;75.94;101301.84;10497603;28;20047;-83
2022/09/23 14:47:45;;;;;;;0.90;0.70;;;;;;;10.68;75.66;101307.06;10488779;28;20060;-84
2022/09/23 14:52:50;;;;;;;1.00;0.82;;;;;;;10.65;75.53;101302.09;10483261;28;20041;-83
2022/09/23 14:58:02;;;;;;;2.08;1.40;;;;;;;10.60;75.93;101299.34;10484978;28;20041;-83
2022/09/23 15:03:13;;;;;;;2.72;1.23;;;;;;;10.53;76.48;101294.06;10469680;28;20046;-83
2022/09/23 15:08:20;;;;;;;1.92;1.30;;;;;;;10.50;76.42;101294.59;10444352;28;20128;-83
2022/09/23 15:13:32;;;;;;;2.15;0.90;;;;;;;10.49;76.46;101288.28;10443304;28;20419;-83
2022/09/23 15:18:36;;;;;;;2.33;0.82;;;;;;;10.50;76.24;101283.63;10497725;28;20053;-83
2022/09/23 15:23:46;;;;;;;3.05;0.82;;;;;;;10.57;76.07;101287.78;10467699;28;20057;-83
2022/09/23 15:28:54;;;;;;;3.28;1.10;;;;;;;10.50;76.48;101294.59;10484065;28;20056;-83
2022/09/23 15:33:57;;;;;;;;;;;;;;;10.49;77.10;101285.53;10485193;28;20052;-83
2022/09/23 15:39:04;;;;;;;2.15;1.00;;;;;;;10.38;76.88;101296.69;10483303;28;19920;-83
2022/09/23 15:44:19;;;;;;;2.72;1.10;;;;;;;10.36;77.64;101293.41;10516787;28;20044;-83
2022/09/23 15:49:31;;;;;;;5.28;0.82;;;;;;;10.31;77.96;101291.44;10485666;28;20401;-86
2022/09/23 15:54:33;;;;;;;2.78;1.15;;;;;;;10.31;78.21;101291.44;10506513;28;20056;-83
2022/09/23 15:59:36;;;;;;;3.95;1.10;;;;;;;10.27;77.78;101298.56;10497349;28;20067;-83
2022/09/23 16:04:39;;;;;;;1.17;1.00;;;;;;;10.25;78.12;101300.75;10489099;28;20045;-83
2022/09/23 16:09:41;;;;;;;2.90;0.95;;;;;;;10.15;78.78;101301.44;10468206;28;20052;-84
2022/09/23 16:14:44;;;;;;;3.33;1.33;;;;;;;10.06;78.88;101296.69;10487800;28;20044;-84
2022/09/23 16:19:46;;;;;;;2.00;1.15;;;;;;;9.98;79.60;101287.03;10486312;28;20044;-81
2022/09/23 16:24:49;;;;;;;1.73;1.10;;;;;;;9.90;79.99;101287.53;10468189;28;20037;-81
2022/09/23 16:29:51;;;;;;;5.70;1.45;;;;;;;9.87;80.31;101282.53;10484641;28;20045;-80
2022/09/23 16:34:53;;;;;;;6.72;1.20;;;;;;;9.76;80.57;101284.38;10484414;28;20037;-79
2022/09/23 16:39:55;;;;;;;4.75;1.52;;;;;;;9.72;80.84;101290.63;10485108;28;20041;-81
2022/09/23 16:44:58;;;;;;;6.30;2.20;;;;;;;9.74;80.69;101285.75;10477015;28;20041;-83
2022/09/23 16:50:01;;;;;;;6.03;1.52;;;;;;;9.84;81.42;101286.66;10454168;28;20041;-81
2022/09/23 16:55:04;;;;;;;8.85;1.73;;;;;;;9.80;81.56;101292.91;10498513;28;20040;-81
2022/09/23 17:05:32;;;;;;;7.07;1.65;;;;;;;9.79;81.71;101294.81;10473050;28;20044;-81
2022/09/23 17:10:34;;;;;;;5.97;1.80;;;;;;;9.76;81.62;101295.34;10487472;28;20063;-82
2022/09/23 17:15:39;;;;;;;5.18;1.92;;;;;;;9.70;81.98;101292.81;10487067;28;20037;-81
2022/09/23 17:20:41;;;;;;;4.03;1.67;;;;;;;9.55;82.21;101293.50;10472587;28;20048;-80
2022/09/23 17:25:47;;;;;;;3.97;1.17;;;;;;;9.54;81.91;101286.34;10459070;28;20484;-80
2022/09/23 17:31:02;;;;;;;2.22;1.15;;;;;;;9.45;81.89;101286.00;10492503;28;20049;-81
2022/09/23 17:36:10;;;;;;;3.22;1.42;;;;;;;9.32;82.59;101289.13;10470284;28;20045;-79
2022/09/23 17:41:14;;;;;;;3.22;1.83;;;;;;;9.35;82.63;101289.44;10482456;28;20036;-78
2022/09/23 17:46:17;;;;;;;4.03;1.90;;;;;;;9.30;82.39;101292.13;10486637;28;20511;-79
2022/09/23 17:51:20;;;;;;;7.05;2.40;;;;;;;9.34;82.88;101292.44;10483075;28;20056;-79
2022/09/23 17:56:24;;;;;;;4.70;1.98;;;;;;;9.53;83.26;101292.91;10462084;28;20048;-83
2022/09/23 18:01:26;;;;;;;5.63;1.40;;;;;;;9.66;82.91;101296.06;10496309;28;20098;-84
2022/09/23 18:06:31;;;;;;;4.50;1.40;;;;;;;9.78;82.51;101303.31;10482774;28;20499;-85
2022/09/23 18:11:38;;;;;;;3.20;1.42;;;;;;;9.62;82.20;101291.38;10489259;28;20045;-80
2022/09/23 18:16:42;;;;;;;2.08;1.60;;;;;;;9.51;81.86;101298.66;10477317;28;20037;-80
2022/09/23 18:21:53;;;;;;;4.55;2.00;;;;;;;9.48;82.00;101292.88;10486296;28;20052;-82
2022/09/23 18:26:58;;;;;;;2.28;1.50;;;;;;;9.41;81.92;101298.56;10483613;28;20529;-85
2022/09/23 18:32:01;;;;;;;3.55;2.00;;;;;;;9.31;82.11;101296.53;10463957;28;20055;-77
2022/09/23 18:37:06;;;;;;;5.18;1.77;;;;;;;9.32;81.83;101295.44;10490725;28;20048;-84
2022/09/23 18:42:12;;;;;;;3.20;1.67;;;;;;;9.27;82.68;101300.88;10468215;28;20079;-75
2022/09/23 18:50:38;;;;;;;2.35;1.50;;;;;;;9.19;82.11;101304.03;10478375;28;20456;-78
2022/09/23 18:52:36;;;;;;;3.33;1.35;;;;;;;9.04;82.14;101292.94;10474756;28;20495;-77
2022/09/23 18:57:40;;;;;;;5.97;1.67;;;;;;;9.02;82.38;101289.59;10484550;28;20458;-76
2022/09/23 19:02:43;;;;;;;4.57;2.00;;;;;;;8.95;83.34;101292.53;10484442;28;20045;-78
2022/09/23 19:07:45;;;;;;;4.72;2.53;;;;;;;8.90;82.96;101291.66;10477934;28;20140;-76
2022/09/23 19:12:48;;;;;;;3.97;1.90;;;;;;;8.83;83.36;101294.53;10479710;28;20037;-76
2022/09/23 19:17:50;;;;;;;7.63;2.47;;;;;;;8.79;84.14;101292.59;10482413;28;20037;-75
2022/09/23 19:22:53;;;;;;;3.90;1.80;;;;;;;8.65;83.63;101294.84;10490552;28;20102;-76
2022/09/23 19:27:55;;;;;;;3.88;1.60;;;;;;;8.56;83.83;101297.19;10489557;28;20049;-77
2022/09/23 19:32:58;;;;;;;4.80;1.92;;;;;;;8.53;84.39;101292.25;10490103;28;20503;-77
2022/09/23 19:38:00;;;;;;;3.83;1.60;;;;;;;8.62;84.11;101290.72;10490848;28;20045;-75
2022/09/23 19:43:04;;;;;;;2.95;1.27;;;;;;;8.60;84.23;101292.06;10487870;28;20045;-75
2022/09/23 19:48:08;;;;;;;4.35;2.08;;;;;;;8.52;84.96;101292.50;10490470;28;20053;-75
2022/09/23 19:53:11;;;;;;;2.50;1.60;;;;;;;8.45;84.39;101298.13;10489751;28;20049;-78
2022/09/23 19:58:13;;;;;;;2.20;1.38;;;;;;;8.45;84.59;101298.13;10474030;28;20523;-78
2022/09/23 20:03:18;;;;;;;4.05;1.38;;;;;;;8.37;84.78;101293.09;10489081;28;20053;-78
2022/09/23 20:08:21;;;;;;;2.05;1.20;;;;;;;8.35;84.58;101293.34;10488678;28;20045;-77
2022/09/23 20:13:23;;;;;;;2.80;1.45;;;;;;;8.36;83.93;101286.78;10489285;28;20056;-75
2022/09/23 20:18:26;;;;;;;1.48;1.30;;;;;;;8.40;84.67;101282.47;10488861;28;20057;-75
2022/09/23 20:23:28;;;;;;;6.35;1.40;;;;;;;8.36;84.22;101280.50;10488070;28;20048;-78
2022/09/23 20:28:30;;;;;;;2.58;1.58;;;;;;;8.58;84.19;101281.38;10499905;28;20060;-85
2022/09/23 20:33:34;;;;;;;2.33;1.77;;;;;;;8.65;83.47;101279.25;10518277;28;20053;-73
2022/09/23 20:38:36;;;;;;;2.00;1.13;;;;;;;8.64;83.20;101277.59;10504473;28;20082;-78
2022/09/23 20:43:39;;;;;;;2.00;1.10;;;;;;;8.62;83.14;101268.81;10489373;28;20052;-76
2022/09/23 20:48:42;;;;;;;4.22;1.65;;;;;;;8.68;83.00;101272.47;10488870;28;20419;-74
2022/09/23 20:53:48;;;;;;;3.40;1.48;;;;;;;8.66;83.07;101269.13;10497259;28;20545;-74
2022/09/23 20:58:51;;;;;;;5.18;2.20;;;;;;;8.60;82.57;101271.00;10487569;28;20041;-74
2022/09/23 21:03:54;;;;;;;4.72;1.30;;;;;;;8.54;82.53;101272.00;10487296;28;20064;-75
2022/09/23 21:08:56;;;;;;;2.35;1.42;;;;;;;8.44;82.91;101266.38;10491168;28;20048;-73
2022/09/23 21:14:00;;;;;;;2.38;1.52;;;;;;;8.57;83.10;101257.81;10478594;28;20466;-75
2022/09/23 21:19:02;;;;;;;3.28;1.70;;;;;;;8.54;83.67;101252.88;10483695;28;20056;-76
2022/09/23 21:24:05;;;;;;;1.65;1.02;;;;;;;8.41;83.54;101251.31;10486108;28;20037;-75
2022/09/23 21:29:08;;;;;;;2.63;1.50;;;;;;;8.31;83.23;101251.13;10484390;28;20044;-76
2022/09/23 21:34:11;;;;;;;2.42;1.65;;;;;;;8.39;83.78;101247.19;10487218;28;20057;-74
2022/09/23 21:39:13;;;;;;;1.67;1.33;;;;;;;8.44;83.83;101249.97;10464687;28;20053;-78
2022/09/23 21:44:16;;;;;;;4.20;1.75;;;;;;;8.52;83.91;101241.34;10515702;28;20055;-80
2022/09/23 21:49:19;;;;;;;3.38;1.40;;;;;;;8.49;83.39;101244.56;10481565;28;20056;-78
2022/09/23 21:54:21;;;;;;;2.05;1.30;;;;;;;8.63;83.52;101250.50;10483637;28;20056;-77
2022/09/23 21:59:24;;;;;;;3.80;1.63;;;;;;;8.68;83.07;101251.41;10465706;28;20048;-78
2022/09/23 22:04:27;;;;;;;3.08;1.60;;;;;;;8.75;83.40;101246.56;10484827;28;20472;-78
2022/09/23 22:09:29;;;;;;;6.03;1.52;;;;;;;8.87;82.42;101251.94;10483296;28;20411;-77
2022/09/23 22:14:31;;;;;;;3.60;1.80;;;;;;;9.15;81.79;101244.56;10484428;28;20048;-79
2022/09/23 22:19:37;;;;;;;2.22;1.80;;;;;;;9.24;81.77;101232.09;10453912;28;20376;-84
2022/09/23 22:24:40;;;;;;;2.70;1.75;;;;;;;9.15;80.96;101239.91;10484598;28;20056;-83
2022/09/23 22:35:04;;;;;;;3.60;2.22;;;;;;;8.91;81.44;101228.44;10485240;28;20049;-80
2022/09/23 22:40:09;;;;;;;4.60;1.58;;;;;;;8.91;81.59;101228.44;10480357;28;20056;-80
2022/09/23 22:45:12;;;;;;;2.80;2.00;;;;;;;9.06;81.70;101225.88;10483554;28;20044;-80
2022/09/23 22:50:14;;;;;;;4.00;1.92;;;;;;;9.16;80.58;101230.63;10484775;28;20045;-80
2022/09/23 22:55:16;;;;;;;3.45;1.90;;;;;;;9.31;80.70;101227.22;10493308;28;20049;-80
2022/09/23 23:00:19;;;;;;;5.10;2.03;;;;;;;9.22;80.73;101232.34;10492885;28;20052;-74
2022/09/23 23:05:21;;;;;;;3.17;1.95;;;;;;;9.36;79.76;101230.84;10492741;28;20040;-74
2022/09/23 23:10:23;;;;;;;2.38;1.50;;;;;;;9.45;80.12;101223.00;10483962;28;20052;-73
2022/09/23 23:15:27;;;;;;;4.32;2.03;;;;;;;9.55;79.17;101227.75;10473473;28;20041;-84
2022/09/23 23:20:29;;;;;;;2.22;1.48;;;;;;;9.55;79.53;101227.75;10500263;28;20067;-89
2022/09/23 23:25:31;;;;;;;4.43;1.75;;;;;;;9.45;79.30;101235.84;10490623;28;20044;-82
2022/09/23 23:30:34;;;;;;;3.72;1.50;;;;;;;9.46;79.41;101221.91;10488064;28;20041;-83
2022/09/23 23:35:36;;;;;;;1.88;1.45;;;;;;;9.30;79.80;101226.41;10495775;28;20044;-84
2022/09/23 23:40:38;;;;;;;2.22;1.35;;;;;;;9.23;79.28;101220.31;10489120;28;20048;-84
2022/09/23 23:45:42;;;;;;;2.70;1.63;;;;;;;9.15;80.45;101212.53;10483894;28;20446;-84
2022/09/23 23:50:54;;;;;;;1.80;1.27;;;;;;;9.29;80.17;101205.56;10487584;28;20492;-84
2022/09/23 23:56:00;;;;;;;2.13;1.38;;;;;;;9.09;80.51;101210.84;10483666;28;20036;-83
